Time;durP1;ratioP1;P1;durP2;ratioP2;P2;SDS_P1;SDS_P2;PMS_P1;PMS_P2;Temp;Humidity;BMP_temperature;BMP_pressure;BME280_temperature;BME280_humidity;BME280_pressure;Samples;Min_cycle;Max_cycle;Signal;HPM_P1;HPM_P2
2024/01/20 00:01:26;;;;;;;2.13;1.90;;;21.00;62.00;;;;;;4963926;28;20490;-79
2024/01/20 00:03:53;;;;;;;2.78;2.22;;;21.00;62.00;;;;;;4969778;28;20466;-82
2024/01/20 00:06:20;;;;;;;2.00;1.70;;;21.00;62.00;;;;;;4965759;28;22860;-81
2024/01/20 00:08:47;;;;;;;1.88;1.67;;;21.00;62.10;;;;;;4965757;28;20467;-81
2024/01/20 00:11:14;;;;;;;2.20;2.00;;;21.00;62.10;;;;;;4965842;28;21207;-83
2024/01/20 00:13:41;;;;;;;17.40;2.78;;;21.00;62.00;;;;;;4959352;28;20664;-77
2024/01/20 00:16:09;;;;;;;2.08;1.80;;;21.00;62.40;;;;;;4955834;28;20349;-80
2024/01/20 00:18:36;;;;;;;2.25;2.05;;;21.00;62.30;;;;;;4963616;28;20201;-79
2024/01/20 00:21:03;;;;;;;2.85;2.40;;;21.00;62.10;;;;;;4962601;28;20216;-81
2024/01/20 00:23:29;;;;;;;2.63;2.17;;;21.00;62.10;;;;;;4960948;28;20202;-78
2024/01/20 00:25:56;;;;;;;3.28;2.55;;;21.00;62.10;;;;;;4960646;28;20205;-77
2024/01/20 00:28:23;;;;;;;2.20;1.60;;;21.00;62.10;;;;;;4958895;28;20208;-77
2024/01/20 00:30:50;;;;;;;2.75;1.60;;;21.00;62.10;;;;;;4962012;28;20205;-79
2024/01/20 00:33:18;;;;;;;2.13;1.93;;;21.00;62.00;;;;;;4963585;28;20208;-78
2024/01/20 00:35:47;;;;;;;2.20;1.70;;;21.00;62.00;;;;;;4965970;28;21002;-78
2024/01/20 00:38:15;;;;;;;2.00;1.80;;;21.00;62.10;;;;;;4965011;28;20464;-78
2024/01/20 00:40:41;;;;;;;3.43;1.97;;;21.00;62.00;;;;;;4962108;28;20465;-78
2024/01/20 00:43:08;;;;;;;1.77;1.67;;;21.00;62.00;;;;;;4954874;28;20974;-77
2024/01/20 00:45:35;;;;;;;2.30;2.10;;;21.00;62.10;;;;;;4962919;28;21040;-77
2024/01/20 00:48:02;;;;;;;2.67;1.97;;;21.00;62.00;;;;;;4959315;28;20986;-75
2024/01/20 00:50:30;;;;;;;1.90;1.80;;;21.00;62.10;;;;;;4962887;28;20460;-76
2024/01/20 00:52:57;;;;;;;4.57;2.20;;;21.00;62.10;;;;;;4966113;28;20463;-78
2024/01/20 00:55:23;;;;;;;1.43;1.33;;;21.00;62.10;;;;;;4962342;28;20589;-78
2024/01/20 00:57:50;;;;;;;1.95;1.63;;;21.00;62.10;;;;;;4967433;28;20467;-78
2024/01/20 01:00:17;;;;;;;1.93;1.70;;;21.00;62.10;;;;;;4964707;28;20526;-75
2024/01/20 01:02:44;;;;;;;2.90;2.00;;;21.00;62.10;;;;;;4962512;28;20616;-78
2024/01/20 01:05:11;;;;;;;1.83;1.57;;;21.00;62.10;;;;;;4964480;28;20201;-77
2024/01/20 01:07:39;;;;;;;2.55;1.52;;;21.00;62.00;;;;;;4965777;28;20848;-77
2024/01/20 01:10:07;;;;;;;2.55;1.95;;;21.00;62.10;;;;;;4965264;28;20209;-76
2024/01/20 01:12:34;;;;;;;2.17;1.87;;;21.00;62.10;;;;;;4961032;28;20282;-77
2024/01/20 01:15:01;;;;;;;1.80;1.70;;;21.00;62.10;;;;;;4964238;28;20472;-76
2024/01/20 01:17:27;;;;;;;2.08;1.25;;;21.00;62.00;;;;;;4962353;28;20216;-78
2024/01/20 01:19:54;;;;;;;1.70;1.47;;;21.00;62.10;;;;;;4965869;28;20198;-77
2024/01/20 01:22:21;;;;;;;1.87;1.73;;;21.00;62.00;;;;;;4964462;28;20472;-77
2024/01/20 01:24:49;;;;;;;2.17;1.42;;;20.90;62.00;;;;;;4969938;28;20831;-79
2024/01/20 01:27:17;;;;;;;2.27;1.43;;;20.90;62.00;;;;;;4971352;28;21111;-77
2024/01/20 01:29:44;;;;;;;1.80;1.37;;;21.00;62.10;;;;;;4967270;28;20461;-78
2024/01/20 01:32:10;;;;;;;2.65;2.13;;;20.90;61.90;;;;;;4967078;28;20556;-77
2024/01/20 01:34:37;;;;;;;1.98;1.60;;;20.90;62.00;;;;;;4964077;28;20443;-77
2024/01/20 01:37:04;;;;;;;2.03;1.40;;;20.90;61.90;;;;;;4969631;28;20210;-77
2024/01/20 01:39:31;;;;;;;1.58;1.48;;;20.90;61.90;;;;;;4968773;28;20679;-76
2024/01/20 01:41:59;;;;;;;1.60;1.30;;;20.90;61.90;;;;;;4969310;28;20201;-76
2024/01/20 01:44:26;;;;;;;2.25;1.88;;;21.00;62.10;;;;;;4971490;28;20475;-78
2024/01/20 01:46:53;;;;;;;1.95;1.50;;;20.90;62.00;;;;;;4961312;28;20189;-77
2024/01/20 01:49:20;;;;;;;1.80;1.35;;;20.90;62.00;;;;;;4971112;28;20214;-76
2024/01/20 01:51:47;;;;;;;2.40;1.90;;;20.90;61.90;;;;;;4963070;28;20216;-78
2024/01/20 01:54:14;;;;;;;1.98;1.70;;;20.90;62.00;;;;;;4973571;28;20209;-77
2024/01/20 01:56:44;;;;;;;1.70;1.40;;;20.90;61.90;;;;;;4978684;28;20222;-77
2024/01/20 01:59:12;;;;;;;3.15;1.77;;;20.90;62.00;;;;;;4967630;28;20535;-77
2024/01/20 02:01:39;;;;;;;1.95;1.63;;;20.90;61.90;;;;;;4967017;28;20204;-76
2024/01/20 02:04:06;;;;;;;2.77;1.37;;;20.90;61.90;;;;;;4962967;28;20660;-76
2024/01/20 02:06:32;;;;;;;1.60;1.50;;;20.90;61.90;;;;;;4963336;28;20503;-77
2024/01/20 02:09:00;;;;;;;3.08;1.45;;;20.90;61.80;;;;;;4961303;28;20201;-76
2024/01/20 02:11:27;;;;;;;1.97;1.60;;;20.90;61.90;;;;;;4963058;28;20699;-78
2024/01/20 02:13:54;;;;;;;2.87;1.57;;;20.90;61.80;;;;;;4962334;28;21665;-76
2024/01/20 02:16:22;;;;;;;1.80;1.55;;;20.90;61.80;;;;;;4963914;28;20479;-76
2024/01/20 02:18:49;;;;;;;2.70;1.30;;;20.90;61.90;;;;;;4960453;28;20537;-77
2024/01/20 02:21:16;;;;;;;1.70;1.60;;;20.90;61.80;;;;;;4964339;28;20202;-76
2024/01/20 02:23:50;;;;;;;2.88;1.70;;;20.90;61.80;;;;;;4962955;28;20212;-77
2024/01/20 02:26:17;;;;;;;1.80;1.53;;;20.90;61.80;;;;;;4961869;28;20200;-78
2024/01/20 02:28:44;;;;;;;2.30;1.85;;;20.90;61.80;;;;;;4960402;28;20465;-76
2024/01/20 02:31:10;;;;;;;1.93;1.80;;;20.90;61.80;;;;;;4963367;28;20243;-78
2024/01/20 02:33:37;;;;;;;3.50;2.10;;;20.90;61.80;;;;;;4958745;28;20452;-78
2024/01/20 02:36:04;;;;;;;1.57;1.33;;;20.90;61.80;;;;;;4959178;28;21314;-78
2024/01/20 02:38:31;;;;;;;1.70;1.48;;;20.90;61.80;;;;;;4962258;28;20484;-78
2024/01/20 02:40:59;;;;;;;2.72;1.52;;;20.90;61.80;;;;;;4964757;28;20656;-78
2024/01/20 02:43:26;;;;;;;1.45;1.35;;;20.90;61.80;;;;;;4961381;28;20201;-78
2024/01/20 02:45:52;;;;;;;3.20;1.30;;;20.90;61.80;;;;;;4959240;28;21135;-78
2024/01/20 02:48:19;;;;;;;3.07;1.93;;;20.90;61.80;;;;;;4959578;28;20224;-78
2024/01/20 02:50:49;;;;;;;2.73;1.80;;;20.90;61.70;;;;;;4964497;28;20456;-78
2024/01/20 02:53:15;;;;;;;1.80;1.20;;;20.90;61.80;;;;;;4959169;28;20466;-78
2024/01/20 02:55:42;;;;;;;1.57;1.47;;;20.90;61.80;;;;;;4961335;28;20216;-78
2024/01/20 02:58:10;;;;;;;2.53;1.70;;;20.90;61.70;;;;;;4958783;28;20464;-78
2024/01/20 03:00:37;;;;;;;2.15;1.70;;;20.90;61.80;;;;;;4962197;28;20955;-78
2024/01/20 03:03:04;;;;;;;2.03;1.60;;;20.90;61.80;;;;;;4962939;28;20648;-78
2024/01/20 03:05:31;;;;;;;2.10;1.00;;;20.90;61.80;;;;;;4963145;28;21240;-78
2024/01/20 03:07:58;;;;;;;2.08;1.88;;;20.90;61.80;;;;;;4963555;28;20487;-78
2024/01/20 03:10:25;;;;;;;1.88;1.30;;;20.90;61.70;;;;;;4960922;28;20209;-78
2024/01/20 03:12:51;;;;;;;1.50;1.30;;;20.90;61.70;;;;;;4965721;28;20545;-78
2024/01/20 03:15:19;;;;;;;1.73;1.52;;;20.90;61.70;;;;;;4964378;28;20477;-78
2024/01/20 03:17:47;;;;;;;1.20;1.10;;;20.90;61.70;;;;;;4961560;28;20220;-78
2024/01/20 03:20:13;;;;;;;1.77;1.50;;;20.90;61.70;;;;;;4964214;28;20205;-78
2024/01/20 03:22:40;;;;;;;1.43;1.30;;;20.90;61.70;;;;;;4964419;28;20464;-78
2024/01/20 03:25:08;;;;;;;1.50;1.35;;;20.90;61.70;;;;;;4963007;28;20495;-78
2024/01/20 03:27:34;;;;;;;1.80;1.60;;;20.90;61.70;;;;;;4955634;28;20204;-78
2024/01/20 03:30:01;;;;;;;2.65;1.40;;;20.90;61.70;;;;;;4960419;28;20398;-78
2024/01/20 03:32:29;;;;;;;2.05;1.00;;;20.90;61.70;;;;;;4963202;28;20212;-78
2024/01/20 03:34:56;;;;;;;1.90;1.33;;;20.90;61.70;;;;;;4966216;28;20208;-78
2024/01/20 03:37:23;;;;;;;2.55;1.58;;;20.90;61.60;;;;;;4961081;28;20221;-78
2024/01/20 03:39:49;;;;;;;1.70;1.60;;;20.90;61.70;;;;;;4967681;28;20210;-78
2024/01/20 03:42:16;;;;;;;1.77;1.40;;;20.90;61.70;;;;;;4963082;28;20538;-78
2024/01/20 03:44:43;;;;;;;2.00;1.70;;;20.90;61.70;;;;;;4957973;28;20206;-78
2024/01/20 03:47:09;;;;;;;1.80;1.47;;;20.90;61.60;;;;;;4963194;28;20462;-78
2024/01/20 03:49:38;;;;;;;1.73;1.45;;;20.90;61.60;;;;;;4963956;28;21137;-78
2024/01/20 03:52:05;;;;;;;1.95;1.40;;;20.90;61.60;;;;;;4962163;28;20287;-78
2024/01/20 03:54:32;;;;;;;1.40;1.30;;;20.90;61.70;;;;;;4965583;28;20213;-79
2024/01/20 03:56:59;;;;;;;1.60;1.40;;;20.90;61.60;;;;;;4965815;28;20225;-78
2024/01/20 03:59:26;;;;;;;1.95;1.75;;;20.90;61.60;;;;;;4965818;28;20467;-79
2024/01/20 04:01:52;;;;;;;1.67;1.37;;;20.90;61.60;;;;;;4968904;28;20212;-80
2024/01/20 04:04:19;;;;;;;1.40;1.27;;;20.90;61.60;;;;;;4969803;28;20636;-78
2024/01/20 04:06:47;;;;;;;1.77;1.50;;;20.90;61.60;;;;;;4966865;28;20204;-78
2024/01/20 04:09:14;;;;;;;2.05;1.40;;;20.90;61.60;;;;;;4971576;28;20469;-78
2024/01/20 04:11:41;;;;;;;1.70;1.40;;;20.90;61.60;;;;;;4969795;28;20203;-78
2024/01/20 04:14:07;;;;;;;1.30;1.20;;;20.90;61.60;;;;;;4969820;28;20217;-78
2024/01/20 04:16:34;;;;;;;2.05;1.25;;;20.90;61.80;;;;;;4968173;28;22428;-78
2024/01/20 04:19:01;;;;;;;2.97;1.55;;;20.90;61.60;;;;;;4971000;28;20201;-78
2024/01/20 04:21:27;;;;;;;1.70;1.50;;;20.90;61.60;;;;;;4963716;28;20621;-78
2024/01/20 04:23:55;;;;;;;1.73;1.38;;;20.90;61.60;;;;;;4962030;28;20478;-79
2024/01/20 04:26:22;;;;;;;2.55;1.17;;;20.90;61.60;;;;;;4964077;28;21127;-78
2024/01/20 04:28:49;;;;;;;1.50;1.40;;;20.90;61.50;;;;;;4961836;28;21206;-78
2024/01/20 04:31:16;;;;;;;1.50;1.33;;;20.90;61.50;;;;;;4965360;28;20473;-78
2024/01/20 04:33:42;;;;;;;2.78;1.33;;;20.90;61.60;;;;;;4964261;28;20815;-78
2024/01/20 04:36:10;;;;;;;2.45;1.10;;;20.90;61.60;;;;;;4964559;28;20228;-78
2024/01/20 04:38:37;;;;;;;1.70;1.40;;;20.90;61.50;;;;;;4963203;28;20343;-78
2024/01/20 04:41:05;;;;;;;1.73;1.20;;;20.90;61.50;;;;;;4962818;28;20209;-78
2024/01/20 04:43:31;;;;;;;1.38;1.20;;;20.90;61.50;;;;;;4961332;28;20457;-78
2024/01/20 04:45:58;;;;;;;1.33;1.15;;;20.90;61.50;;;;;;4958428;28;20663;-78
2024/01/20 04:48:25;;;;;;;1.40;1.23;;;20.90;61.60;;;;;;4960074;28;20205;-78
2024/01/20 04:50:52;;;;;;;1.88;1.27;;;20.90;61.50;;;;;;4963768;28;20231;-78
2024/01/20 04:53:19;;;;;;;1.30;1.10;;;20.90;61.50;;;;;;4962613;28;20215;-78
2024/01/20 04:55:45;;;;;;;1.70;1.40;;;20.90;61.50;;;;;;4953985;28;20819;-78
2024/01/20 04:58:14;;;;;;;1.40;1.10;;;20.90;61.50;;;;;;4958829;28;20488;-78
2024/01/20 05:00:40;;;;;;;1.50;1.30;;;20.90;61.50;;;;;;4963142;28;20204;-78
2024/01/20 05:03:07;;;;;;;1.50;1.40;;;20.90;61.50;;;;;;4960694;28;20464;-78
2024/01/20 05:05:34;;;;;;;1.60;1.27;;;20.90;61.50;;;;;;4963965;28;20663;-78
2024/01/20 05:08:01;;;;;;;1.60;1.50;;;20.90;61.50;;;;;;4966342;28;20197;-79
2024/01/20 05:10:27;;;;;;;2.00;1.67;;;20.90;61.50;;;;;;4960983;28;21509;-78
2024/01/20 05:12:54;;;;;;;1.88;1.30;;;20.90;61.50;;;;;;4965012;28;20467;-78
2024/01/20 05:15:22;;;;;;;1.20;1.10;;;20.90;61.50;;;;;;4962628;28;20193;-78
2024/01/20 05:17:50;;;;;;;1.88;1.20;;;20.90;61.60;;;;;;4956860;28;20491;-78
2024/01/20 05:20:16;;;;;;;2.05;1.25;;;20.90;61.60;;;;;;4962437;28;20865;-78
2024/01/20 05:22:43;;;;;;;2.70;1.67;;;20.90;61.50;;;;;;4956227;28;22678;-78
2024/01/20 05:25:10;;;;;;;1.15;1.05;;;20.90;61.50;;;;;;4958821;28;20468;-79
2024/01/20 05:27:37;;;;;;;1.30;1.17;;;20.90;61.50;;;;;;4961918;28;20669;-78
2024/01/20 05:30:04;;;;;;;1.93;1.40;;;20.90;61.50;;;;;;4962463;28;20767;-78
2024/01/20 05:32:32;;;;;;;1.85;1.30;;;20.90;61.50;;;;;;4960837;28;20475;-77
2024/01/20 05:34:59;;;;;;;1.75;1.40;;;20.90;61.50;;;;;;4960513;28;20562;-78
2024/01/20 05:37:25;;;;;;;1.42;1.33;;;20.90;61.50;;;;;;4966469;28;20313;-78
2024/01/20 05:39:52;;;;;;;1.45;1.35;;;20.90;61.50;;;;;;4959339;28;20698;-78
2024/01/20 05:42:19;;;;;;;1.50;1.10;;;20.90;61.50;;;;;;4964223;28;21165;-78
2024/01/20 05:44:46;;;;;;;1.90;1.20;;;20.90;61.50;;;;;;4963528;28;20208;-78
2024/01/20 05:47:12;;;;;;;1.73;1.20;;;20.90;61.50;;;;;;4956402;28;20205;-78
2024/01/20 05:49:40;;;;;;;1.50;1.30;;;20.90;61.50;;;;;;4963928;28;20216;-78
2024/01/20 05:52:07;;;;;;;1.83;1.27;;;20.90;61.50;;;;;;4967176;28;21320;-79
2024/01/20 05:54:34;;;;;;;1.63;1.38;;;20.90;61.50;;;;;;4965214;28;20205;-78
2024/01/20 05:57:01;;;;;;;3.05;1.40;;;20.90;61.50;;;;;;4963988;28;20251;-79
2024/01/20 05:59:27;;;;;;;1.50;1.20;;;20.90;61.40;;;;;;4971088;28;20201;-78
2024/01/20 06:01:54;;;;;;;1.38;1.13;;;20.90;61.40;;;;;;4966526;28;20479;-78
2024/01/20 06:04:21;;;;;;;1.20;1.10;;;20.90;61.50;;;;;;4968202;28;20208;-78
2024/01/20 06:06:49;;;;;;;1.30;1.00;;;20.90;61.40;;;;;;4960642;28;20193;-78
2024/01/20 06:09:16;;;;;;;1.55;1.45;;;20.90;61.40;;;;;;4965072;28;20205;-78
2024/01/20 06:11:43;;;;;;;10.98;1.60;;;20.90;61.50;;;;;;4964130;28;20205;-79
2024/01/20 06:14:10;;;;;;;6.87;1.37;;;20.90;62.10;;;;;;4963651;28;20324;-82
2024/01/20 06:16:41;;;;;;;5.43;0.93;;;20.90;62.20;;;;;;4955062;28;20495;-84
2024/01/20 06:19:08;;;;;;;1.42;1.20;;;20.90;62.20;;;;;;4960137;28;20209;-83
2024/01/20 06:21:34;;;;;;;1.40;1.03;;;20.90;62.30;;;;;;4961283;28;20201;-83
2024/01/20 06:24:03;;;;;;;1.87;1.37;;;20.90;62.50;;;;;;4960152;28;20467;-83
2024/01/20 06:26:29;;;;;;;1.40;1.00;;;21.00;62.70;;;;;;4961493;28;20468;-84
2024/01/20 06:28:56;;;;;;;1.50;1.17;;;21.00;62.90;;;;;;4963356;28;20571;-85
2024/01/20 06:31:24;;;;;;;1.13;0.85;;;21.00;62.90;;;;;;4960083;28;20224;-85
2024/01/20 06:33:51;;;;;;;2.05;1.35;;;21.00;63.00;;;;;;4964850;28;20617;-85
2024/01/20 06:36:18;;;;;;;2.95;2.65;;;21.10;63.10;;;;;;4962235;28;20226;-86
2024/01/20 06:38:44;;;;;;;1.20;0.90;;;21.10;63.10;;;;;;4963426;28;20232;-85
2024/01/20 06:41:13;;;;;;;1.53;1.20;;;21.10;63.30;;;;;;4958306;28;20569;-85
2024/01/20 06:43:39;;;;;;;1.10;0.97;;;21.20;63.00;;;;;;4960351;28;20978;-84
2024/01/20 06:46:07;;;;;;;1.13;1.02;;;21.20;63.40;;;;;;4956160;28;20466;-84
2024/01/20 06:48:34;;;;;;;1.20;1.10;;;21.20;63.20;;;;;;4959698;28;20202;-84
2024/01/20 06:51:01;;;;;;;1.30;1.10;;;21.20;63.20;;;;;;4961496;28;20469;-83
2024/01/20 06:53:27;;;;;;;1.17;0.90;;;21.30;63.40;;;;;;4961958;28;20467;-84
2024/01/20 06:55:54;;;;;;;1.70;1.43;;;21.30;63.60;;;;;;4959406;28;20468;-84
2024/01/20 06:58:23;;;;;;;1.40;1.00;;;21.30;63.30;;;;;;4960015;28;20477;-85
2024/01/20 07:00:50;;;;;;;1.30;1.13;;;21.30;63.40;;;;;;4961799;28;20456;-85
2024/01/20 07:03:17;;;;;;;1.33;1.00;;;21.30;63.30;;;;;;4954474;28;20469;-84
2024/01/20 07:05:43;;;;;;;1.30;1.00;;;21.30;63.40;;;;;;4961161;28;20659;-83
2024/01/20 07:08:10;;;;;;;1.30;1.10;;;21.30;63.50;;;;;;4961476;28;20468;-84
2024/01/20 07:10:37;;;;;;;1.10;0.95;;;21.30;63.40;;;;;;4965048;28;20468;-83
2024/01/20 07:13:05;;;;;;;1.90;1.17;;;21.30;63.50;;;;;;4964545;28;20228;-84
2024/01/20 07:15:33;;;;;;;2.33;1.10;;;21.30;63.40;;;;;;4961018;28;20789;-84
2024/01/20 07:17:59;;;;;;;2.50;1.00;;;21.30;63.40;;;;;;4962368;28;20483;-83
2024/01/20 07:20:26;;;;;;;1.40;1.10;;;21.40;63.50;;;;;;4960036;28;20820;-84
2024/01/20 07:22:53;;;;;;;2.60;1.00;;;21.40;63.50;;;;;;4959684;28;20472;-84
2024/01/20 07:25:20;;;;;;;1.45;1.17;;;21.40;63.50;;;;;;4959637;28;20472;-84
2024/01/20 07:27:46;;;;;;;1.30;0.90;;;21.40;63.50;;;;;;4959849;28;20212;-84
2024/01/20 07:30:13;;;;;;;2.17;1.00;;;21.40;63.50;;;;;;4957803;28;20460;-84
2024/01/20 07:32:42;;;;;;;1.30;1.03;;;21.40;63.50;;;;;;4959132;28;20205;-83
2024/01/20 07:35:09;;;;;;;1.50;1.30;;;21.40;63.60;;;;;;4964474;28;20507;-84
2024/01/20 07:37:37;;;;;;;1.63;1.00;;;21.40;63.60;;;;;;4960672;28;20487;-84
2024/01/20 07:40:04;;;;;;;1.40;1.07;;;21.40;63.60;;;;;;4964344;28;20464;-84
2024/01/20 07:42:33;;;;;;;1.10;0.93;;;21.40;63.80;;;;;;4964554;28;20963;-85
2024/01/20 07:45:00;;;;;;;1.13;0.90;;;21.40;63.80;;;;;;4964730;28;21346;-85
2024/01/20 07:47:27;;;;;;;1.50;1.20;;;21.50;63.90;;;;;;4963976;28;20470;-84
2024/01/20 07:49:55;;;;;;;1.20;0.90;;;21.50;64.00;;;;;;4969046;28;20460;-85
2024/01/20 07:52:21;;;;;;;1.20;1.07;;;21.50;64.00;;;;;;4964666;28;20464;-86
2024/01/20 07:54:48;;;;;;;1.43;1.10;;;21.50;64.00;;;;;;4960151;28;21027;-81
2024/01/20 07:57:15;;;;;;;1.27;1.10;;;21.60;63.90;;;;;;4965515;28;22785;-81
2024/01/20 07:59:41;;;;;;;1.33;1.07;;;21.60;63.90;;;;;;4962929;28;20456;-79
2024/01/20 08:02:08;;;;;;;1.17;0.90;;;21.50;63.50;;;;;;4957557;28;20830;-80
2024/01/20 08:04:35;;;;;;;1.27;1.10;;;21.50;63.60;;;;;;4967307;28;20463;-80
2024/01/20 08:07:03;;;;;;;1.80;1.40;;;21.50;63.70;;;;;;4958311;28;20472;-79
2024/01/20 08:09:30;;;;;;;1.30;0.90;;;21.60;63.60;;;;;;4958562;28;20813;-80
2024/01/20 08:11:57;;;;;;;1.87;1.10;;;21.60;63.50;;;;;;4968174;28;20464;-80
2024/01/20 08:14:24;;;;;;;1.00;0.70;;;21.60;63.40;;;;;;4965112;28;20514;-80
2024/01/20 08:16:50;;;;;;;1.27;1.00;;;21.60;63.40;;;;;;4963945;28;21529;-82
2024/01/20 08:19:17;;;;;;;1.00;0.80;;;21.60;63.30;;;;;;4964591;28;20493;-82
2024/01/20 08:21:44;;;;;;;2.17;0.90;;;21.60;63.20;;;;;;4964316;28;20470;-81
2024/01/20 08:24:12;;;;;;;1.30;1.20;;;21.60;63.20;;;;;;4958754;28;20464;-81
2024/01/20 08:26:38;;;;;;;2.40;1.10;;;21.50;63.00;;;;;;4965873;28;20460;-81
2024/01/20 08:29:05;;;;;;;2.20;1.03;;;21.50;63.10;;;;;;4963150;28;20456;-81
2024/01/20 08:31:32;;;;;;;1.30;1.20;;;21.50;62.90;;;;;;4965686;28;20982;-81
2024/01/20 08:33:59;;;;;;;1.23;1.00;;;21.50;62.80;;;;;;4968078;28;20479;-81
2024/01/20 08:36:25;;;;;;;1.20;1.10;;;21.50;62.70;;;;;;4967278;28;20460;-82
2024/01/20 08:38:52;;;;;;;1.10;0.90;;;21.50;62.70;;;;;;4967059;28;21033;-81
2024/01/20 08:41:20;;;;;;;2.90;1.03;;;21.50;62.80;;;;;;4964651;28;20467;-81
2024/01/20 08:43:48;;;;;;;1.10;0.93;;;21.50;62.60;;;;;;4963565;28;20471;-81
2024/01/20 08:46:14;;;;;;;1.20;1.00;;;21.50;62.70;;;;;;4963733;28;20531;-82
2024/01/20 08:48:41;;;;;;;1.53;1.07;;;21.50;62.60;;;;;;4957798;28;20464;-81
2024/01/20 08:51:08;;;;;;;5.00;1.20;;;21.50;62.70;;;;;;4967656;28;20455;-82
2024/01/20 08:53:35;;;;;;;1.23;0.90;;;21.50;63.40;;;;;;4964561;28;20986;-83
2024/01/20 08:56:03;;;;;;;1.10;0.90;;;21.40;62.50;;;;;;4968422;28;20457;-83
2024/01/20 08:58:31;;;;;;;1.97;1.03;;;21.50;62.60;;;;;;4965230;28;20483;-81
2024/01/20 09:00:58;;;;;;;1.17;1.00;;;21.40;62.50;;;;;;4964417;28;20463;-81
2024/01/20 09:03:25;;;;;;;1.10;0.87;;;21.40;62.50;;;;;;4965519;28;20471;-82
2024/01/20 09:05:52;;;;;;;1.67;0.80;;;21.40;62.40;;;;;;4965994;28;20466;-81
2024/01/20 09:08:19;;;;;;;1.50;1.00;;;21.40;62.50;;;;;;4967863;28;20471;-82
2024/01/20 09:10:45;;;;;;;1.27;0.90;;;21.40;62.40;;;;;;4954829;28;20479;-81
2024/01/20 09:13:12;;;;;;;1.17;1.00;;;21.40;62.60;;;;;;4964872;28;20464;-82
2024/01/20 09:15:40;;;;;;;1.80;1.00;;;21.50;62.60;;;;;;4963961;28;20483;-82
2024/01/20 09:18:08;;;;;;;1.37;1.20;;;21.50;62.60;;;;;;4959446;28;20483;-82
2024/01/20 09:20:35;;;;;;;2.33;1.10;;;21.50;62.60;;;;;;4969174;28;20452;-81
2024/01/20 09:23:02;;;;;;;1.27;0.97;;;21.50;63.40;;;;;;4968558;28;21379;-83
2024/01/20 09:25:28;;;;;;;1.17;0.93;;;21.50;62.60;;;;;;4972147;28;20487;-82
2024/01/20 09:27:55;;;;;;;1.10;0.90;;;21.50;62.50;;;;;;4969238;28;20440;-82
2024/01/20 09:30:22;;;;;;;1.10;0.80;;;21.50;62.50;;;;;;4964104;28;20459;-83
2024/01/20 09:32:50;;;;;;;1.00;0.80;;;21.50;62.50;;;;;;4969528;28;20247;-82
2024/01/20 09:35:17;;;;;;;1.40;1.30;;;21.50;62.50;;;;;;4964120;28;22152;-82
2024/01/20 09:37:44;;;;;;;1.10;0.93;;;21.40;62.30;;;;;;4972937;28;20487;-87
2024/01/20 09:40:12;;;;;;;1.33;1.20;;;21.40;62.20;;;;;;4969622;28;20467;-81
2024/01/20 09:42:39;;;;;;;1.20;1.10;;;21.40;61.70;;;;;;4966930;28;20456;-87
2024/01/20 09:45:07;;;;;;;1.27;1.07;;;21.40;62.10;;;;;;4971852;28;20463;-82
2024/01/20 09:47:34;;;;;;;2.90;1.13;;;21.40;62.30;;;;;;4963366;28;20756;-84
2024/01/20 09:50:04;;;;;;;1.80;1.07;;;21.50;62.60;;;;;;4969469;28;20821;-83
2024/01/20 09:52:32;;;;;;;2.90;1.13;;;21.50;62.60;;;;;;4961794;28;20456;-85
2024/01/20 09:55:14;;;;;;;2.77;1.10;;;21.50;62.70;;;;;;4967596;28;20774;-85
2024/01/20 09:57:42;;;;;;;8.77;1.23;;;21.50;62.80;;;;;;4967419;28;20974;-82
2024/01/20 10:00:11;;;;;;;1.70;1.60;;;21.50;62.80;;;;;;4974077;28;20655;-84
2024/01/20 10:02:40;;;;;;;1.50;1.20;;;21.50;62.90;;;;;;4972527;28;20466;-83
2024/01/20 10:05:11;;;;;;;2.00;1.10;;;21.50;63.00;;;;;;4969449;28;21194;-83
2024/01/20 10:07:37;;;;;;;3.97;1.30;;;21.50;63.90;;;;;;4970509;28;20654;-84
2024/01/20 10:10:06;;;;;;;2.83;1.20;;;21.50;63.20;;;;;;4969057;28;20471;-84
2024/01/20 10:12:32;;;;;;;3.33;1.10;;;21.50;63.20;;;;;;4971167;28;20575;-82
2024/01/20 10:14:59;;;;;;;1.30;1.10;;;21.50;63.20;;;;;;4968863;28;20469;-84
2024/01/20 10:17:26;;;;;;;1.37;1.27;;;21.50;63.30;;;;;;4974312;28;20971;-84
2024/01/20 10:19:53;;;;;;;1.20;1.07;;;21.50;63.40;;;;;;4969010;28;20491;-82
2024/01/20 10:22:21;;;;;;;1.40;1.10;;;21.50;63.40;;;;;;4970015;28;20468;-83
2024/01/20 10:24:47;;;;;;;1.33;0.90;;;21.50;63.50;;;;;;4974704;28;20469;-83
2024/01/20 10:27:17;;;;;;;1.50;1.30;;;21.60;63.60;;;;;;4970014;28;20460;-82
2024/01/20 10:29:43;;;;;;;1.20;0.90;;;21.60;64.50;;;;;;4971666;28;20203;-81
2024/01/20 10:32:09;;;;;;;1.30;1.10;;;21.60;63.80;;;;;;4970279;28;20457;-85
2024/01/20 10:34:37;;;;;;;1.93;1.03;;;21.60;63.80;;;;;;4971804;28;20217;-84
2024/01/20 10:37:10;;;;;;;1.17;1.07;;;21.60;63.80;;;;;;4965106;28;20464;-82
2024/01/20 10:39:41;;;;;;;1.33;1.20;;;21.70;63.80;;;;;;4961813;28;20500;-86
2024/01/20 10:42:10;;;;;;;1.20;0.80;;;21.70;63.90;;;;;;4971386;28;20460;-83
2024/01/20 10:44:42;;;;;;;1.33;1.07;;;21.70;63.90;;;;;;4966120;28;20464;-83
2024/01/20 10:47:16;;;;;;;1.80;0.80;;;21.70;63.90;;;;;;4967299;28;20448;-85
2024/01/20 10:49:45;;;;;;;1.37;1.00;;;21.80;63.90;;;;;;4967388;28;20456;-83
2024/01/20 10:52:12;;;;;;;1.50;1.13;;;21.80;63.90;;;;;;4964509;28;20469;-84
2024/01/20 10:54:43;;;;;;;2.10;0.80;;;21.80;63.90;;;;;;4967268;28;20457;-84
2024/01/20 10:57:10;;;;;;;1.50;1.00;;;21.80;63.90;;;;;;4960013;28;20468;-85
2024/01/20 10:59:41;;;;;;;1.00;0.80;;;21.80;63.90;;;;;;4964100;28;20539;-85
2024/01/20 11:02:09;;;;;;;1.37;1.07;;;21.80;63.90;;;;;;4969896;28;20460;-84
2024/01/20 11:04:37;;;;;;;1.13;0.93;;;21.80;63.90;;;;;;4972468;28;21009;-84
2024/01/20 11:07:07;;;;;;;1.20;1.00;;;21.80;63.80;;;;;;4970316;28;20468;-83
2024/01/20 11:09:33;;;;;;;1.23;1.00;;;21.90;63.90;;;;;;4962089;28;20452;-85
2024/01/20 11:12:03;;;;;;;1.57;1.00;;;21.90;63.90;;;;;;4964784;28;20999;-84
2024/01/20 11:14:30;;;;;;;1.70;1.20;;;21.90;63.80;;;;;;4971708;28;20471;-84
2024/01/20 11:16:57;;;;;;;1.37;0.90;;;21.90;63.90;;;;;;4969436;28;20537;-84
2024/01/20 11:19:28;;;;;;;1.60;1.13;;;21.90;63.80;;;;;;4966775;28;20892;-84
2024/01/20 11:21:55;;;;;;;1.30;1.20;;;21.90;63.80;;;;;;4971360;28;20507;-83
2024/01/20 11:24:37;;;;;;;1.20;1.10;;;21.90;63.70;;;;;;4973027;28;20999;-82
2024/01/20 11:27:06;;;;;;;1.43;1.13;;;21.90;63.80;;;;;;4965797;28;20511;-85
2024/01/20 11:29:32;;;;;;;1.47;0.90;;;21.90;63.80;;;;;;4966558;28;20747;-84
2024/01/20 11:31:59;;;;;;;1.50;1.23;;;21.90;63.80;;;;;;4960841;28;26921;-83
2024/01/20 11:34:26;;;;;;;3.80;1.50;;;21.90;63.80;;;;;;4966988;28;20468;-85
2024/01/20 11:36:53;;;;;;;2.37;1.00;;;21.90;63.20;;;;;;4964484;28;20511;-86
2024/01/20 11:39:23;;;;;;;1.30;0.80;;;21.90;63.80;;;;;;4970772;28;20480;-86
2024/01/20 11:42:00;;;;;;;5.57;1.23;;;21.90;63.60;;;;;;4970527;28;20464;-85
2024/01/20 11:44:31;;;;;;;5.60;1.20;;;21.90;63.70;;;;;;4959755;28;20649;-84
2024/01/20 11:46:58;;;;;;;3.90;1.43;;;21.90;63.70;;;;;;4957919;28;20460;-84
2024/01/20 11:49:25;;;;;;;5.33;1.53;;;21.90;63.60;;;;;;4966073;28;21133;-85
2024/01/20 11:51:51;;;;;;;1.40;1.27;;;21.90;63.50;;;;;;4971918;28;20519;-85
2024/01/20 11:54:18;;;;;;;4.03;1.30;;;21.90;63.80;;;;;;4960006;28;20473;-83
2024/01/20 11:56:45;;;;;;;1.63;1.43;;;21.90;63.70;;;;;;4961092;28;20468;-86
2024/01/20 11:59:14;;;;;;;2.20;1.40;;;21.90;63.90;;;;;;4964407;28;21124;-87
2024/01/20 12:01:42;;;;;;;1.40;1.20;;;22.00;63.90;;;;;;4961304;28;20551;-88
2024/01/20 12:04:09;;;;;;;2.07;1.37;;;22.00;63.90;;;;;;4963282;28;20472;-86
2024/01/20 12:06:36;;;;;;;1.40;0.97;;;22.00;64.00;;;;;;4965596;28;20464;-85
2024/01/20 12:09:03;;;;;;;2.37;1.23;;;22.00;63.90;;;;;;4966222;28;20933;-86
2024/01/20 12:11:30;;;;;;;1.87;1.40;;;22.00;63.90;;;;;;4966378;28;20473;-87
2024/01/20 12:13:57;;;;;;;1.83;1.17;;;22.00;63.90;;;;;;4965935;28;20468;-87
2024/01/20 12:16:24;;;;;;;1.30;1.00;;;22.00;63.80;;;;;;4966148;28;21429;-86
2024/01/20 12:18:53;;;;;;;1.33;1.10;;;22.10;63.90;;;;;;4966903;28;20486;-87
2024/01/20 12:21:20;;;;;;;2.80;1.33;;;22.10;63.90;;;;;;4968631;28;20463;-87
2024/01/20 12:23:47;;;;;;;2.10;0.90;;;22.10;63.90;;;;;;4968055;28;20471;-87
2024/01/20 12:26:16;;;;;;;2.13;1.27;;;22.10;63.80;;;;;;4966471;28;20489;-87
2024/01/20 12:28:46;;;;;;;2.70;1.83;;;22.10;63.70;;;;;;4966156;28;20452;-87
2024/01/20 12:31:13;;;;;;;1.93;1.40;;;22.10;63.70;;;;;;4967808;28;20453;-85
2024/01/20 12:33:40;;;;;;;1.87;1.10;;;22.10;63.70;;;;;;4968532;28;20966;-87
2024/01/20 12:36:08;;;;;;;1.20;1.10;;;22.10;63.60;;;;;;4969052;28;20456;-87
2024/01/20 12:38:35;;;;;;;2.27;1.00;;;22.10;63.60;;;;;;4969706;28;20468;-87
2024/01/20 12:41:02;;;;;;;1.83;1.37;;;22.20;63.70;;;;;;4969935;28;20460;-87
2024/01/20 12:43:30;;;;;;;2.33;1.20;;;22.10;63.60;;;;;;4967275;28;20460;-87
2024/01/20 12:45:57;;;;;;;1.30;1.03;;;22.10;63.60;;;;;;4970433;28;20468;-88
2024/01/20 12:48:24;;;;;;;1.60;1.47;;;22.10;63.50;;;;;;4962337;28;20467;-87